Terminal Aerodrome Forecast
Issued by NWS Cleveland, OH

Home | Current Version | Previous Version | Graphics & Text | Print | Product List | Glossary On
Versions: 1 2 3 4 5 6 7 8 9 10 11 12 13 14 15 16 17 18 19 20 21 22 23
014
FTUS41 KCLE 232320
TAFCAK
TAF
KCAK 232320Z 2400/2424 13005KT P6SM OVC200
     FM240200 13004KT P6SM OVC200
     FM241100 11006KT P6SM BKN025
     FM241200 11006KT P6SM BKN015
     FM241400 12007KT P6SM OVC025
     FM242000 12010KT 5SM -SHRA OVC020
     FM242200 12011KT 5SM -SHRA OVC015=

USA.gov is the U.S. government's official web portal to all federal, state and local government web resources and services.